createdAt,value
2022-09-13T00:03:16.921Z,0.00
2022-09-13T00:15:17.391Z,0.00
2022-09-13T00:27:17.852Z,0.63
2022-09-13T00:39:18.293Z,0.01
2022-09-13T00:51:18.745Z,0.01
2022-09-13T01:03:19.186Z,0.01
2022-09-13T01:15:19.684Z,0.01
2022-09-13T01:27:20.080Z,0.28
2022-09-13T01:39:20.569Z,0.00
2022-09-13T01:51:21.004Z,0.00
2022-09-13T02:03:21.485Z,0.00
2022-09-13T02:15:21.882Z,0.00
2022-09-13T02:27:22.374Z,0.00
2022-09-13T02:39:22.795Z,0.00
2022-09-13T02:51:23.288Z,0.00
2022-09-13T03:03:23.757Z,0.00
2022-09-13T03:15:24.220Z,0.00
2022-09-13T03:27:24.666Z,0.00
2022-09-13T03:39:25.125Z,0.00
2022-09-13T03:51:25.558Z,0.03
2022-09-13T04:03:25.991Z,0.00
2022-09-13T04:15:26.405Z,0.03
2022-09-13T04:27:26.925Z,0.00
2022-09-13T04:39:27.375Z,0.00
2022-09-13T04:51:27.833Z,0.00
2022-09-13T05:03:28.281Z,0.00
2022-09-13T05:15:28.738Z,0.00
2022-09-13T05:27:29.179Z,0.00
2022-09-13T05:39:39.785Z,0.11
2022-09-13T05:51:30.051Z,0.27
2022-09-13T06:03:30.569Z,0.01
2022-09-13T06:15:30.936Z,0.08
2022-09-13T06:27:31.475Z,0.11
2022-09-13T06:39:31.925Z,0.04
2022-09-13T06:51:32.435Z,0.15
2022-09-13T07:03:32.770Z,0.00
2022-09-13T07:15:33.339Z,0.37
2022-09-13T07:27:33.714Z,0.07
2022-09-13T07:39:34.201Z,0.36
2022-09-13T07:51:34.642Z,0.72
2022-09-13T08:03:35.058Z,0.73
2022-09-13T08:15:35.557Z,1.58
2022-09-13T08:27:35.996Z,2.01
2022-09-13T08:39:36.437Z,1.97
2022-09-13T08:51:36.885Z,1.99
2022-09-13T09:03:37.330Z,0.98
2022-09-13T09:15:37.853Z,2.73
2022-09-13T09:27:38.264Z,1.45
2022-09-13T09:39:38.713Z,1.40
2022-09-13T09:51:39.173Z,1.81
2022-09-13T10:03:39.641Z,1.70
2022-09-13T10:15:40.083Z,1.11
2022-09-13T10:27:40.495Z,1.11
2022-09-13T10:39:41.016Z,1.54
2022-09-13T10:51:41.476Z,0.85
2022-09-13T11:03:41.937Z,1.56
2022-09-13T11:15:42.368Z,1.19
2022-09-13T11:27:42.803Z,1.17
2022-09-13T11:39:43.284Z,0.89
2022-09-13T11:51:43.728Z,1.53
2022-09-13T12:03:44.161Z,1.05
2022-09-13T12:15:44.602Z,0.42
2022-09-13T12:27:45.095Z,0.58
2022-09-13T12:39:45.573Z,0.59
2022-09-13T12:51:46.024Z,0.97
2022-09-13T13:03:46.569Z,0.73
2022-09-13T13:15:50.071Z,1.27
2022-09-13T13:27:48.619Z,0.40
2022-09-13T13:39:47.870Z,0.92
2022-09-13T13:51:48.265Z,0.69
2022-09-13T14:03:48.821Z,0.83
2022-09-13T14:15:49.241Z,0.89
2022-09-13T14:27:49.631Z,0.55
2022-09-13T14:39:50.133Z,0.42
2022-09-13T14:51:50.594Z,0.60
2022-09-13T15:03:51.021Z,0.30
2022-09-13T15:15:51.580Z,0.49
2022-09-13T15:27:51.949Z,0.27
2022-09-13T15:39:52.433Z,0.24
2022-09-13T15:51:52.858Z,0.70
2022-09-13T16:03:53.307Z,0.08
2022-09-13T16:27:54.253Z,0.17
2022-09-13T16:39:54.729Z,0.20
2022-09-13T16:51:55.145Z,0.09
2022-09-13T17:03:55.591Z,0.02
2022-09-13T17:15:56.695Z,0.01
2022-09-13T17:27:56.473Z,0.00
2022-09-13T17:39:56.993Z,0.00
2022-09-13T17:51:57.415Z,0.01
2022-09-13T18:03:57.873Z,0.00
2022-09-13T18:15:58.340Z,0.00
2022-09-13T18:27:58.807Z,0.13
2022-09-13T18:39:59.268Z,0.06
2022-09-13T18:51:59.738Z,0.13
2022-09-13T19:04:00.141Z,0.08
2022-09-13T19:16:00.629Z,0.02
2022-09-13T19:28:01.024Z,0.00
2022-09-13T19:40:01.550Z,0.00
2022-09-13T19:52:01.927Z,0.11
2022-09-13T20:04:02.404Z,0.16
2022-09-13T20:16:02.916Z,0.00
2022-09-13T20:28:03.341Z,0.09
2022-09-13T20:40:03.816Z,0.35
2022-09-13T20:52:04.218Z,0.11
2022-09-13T21:04:04.657Z,0.12
2022-09-13T21:16:05.169Z,0.09
2022-09-13T21:28:05.592Z,0.00
2022-09-13T21:40:06.082Z,0.26
2022-09-13T21:52:06.466Z,0.00
2022-09-13T22:04:06.967Z,0.00
2022-09-13T22:16:07.409Z,0.00
2022-09-13T22:28:07.866Z,0.00
2022-09-13T22:40:08.347Z,0.00
2022-09-13T22:52:08.794Z,0.00
2022-09-13T23:04:09.209Z,0.01
2022-09-13T23:16:09.750Z,0.01
2022-09-13T23:28:10.130Z,0.01
2022-09-13T23:40:10.638Z,0.01
2022-09-13T23:52:11.049Z,0.01
